AWQ355 WIII-WAEE
Flight info
| Callsign | AWQ355 |
|---|---|
| Flight time | 4h 0m |
| Altitude | 35000 |
| Route | EGUKO T9 MWB W61 HALMO |
| Aircraft | A320/M-SDE3FGHIRWY/LB1 |
Departure
| Time | 2026-05-05 03:45 |
|---|---|
| Airport | Soekarno-Hatta International Airport (WIII) |
Arrival
| Time | 2026-05-05 07:46 |
|---|---|
| Airport | Sultan Babullah Airport (WAEE) |
| Time | Latitude | Longitude | Altitude | Speed | Heading |
|---|---|---|---|---|---|
| 2026-05-05 03:08 | -6.13180 | 106.65762 | 42 ft | 0 kts | 278° |
| 2026-05-05 03:28 | -6.13180 | 106.65765 | 42 ft | 2 kts | 278° |
| 2026-05-05 03:29 | -6.13182 | 106.65780 | 42 ft | 2 kts | 278° |
| 2026-05-05 03:29 | -6.13185 | 106.65794 | 42 ft | 2 kts | 278° |
| 2026-05-05 03:29 | -6.13186 | 106.65809 | 42 ft | 2 kts | 261° |
| 2026-05-05 03:29 | -6.13181 | 106.65823 | 42 ft | 2 kts | 233° |
| 2026-05-05 03:30 | -6.13170 | 106.65833 | 42 ft | 2 kts | 206° |
| 2026-05-05 03:30 | -6.13156 | 106.65837 | 42 ft | 2 kts | 194° |
| 2026-05-05 03:30 | -6.13145 | 106.65840 | 42 ft | 0 kts | 199° |
| 2026-05-05 03:30 | -6.13150 | 106.65839 | 42 ft | 0 kts | 204° |
| 2026-05-05 03:31 | -6.13156 | 106.65837 | 42 ft | 0 kts | 195° |
| 2026-05-05 03:31 | -6.13157 | 106.65836 | 42 ft | 0 kts | 195° |
| 2026-05-05 03:36 | -6.13163 | 106.65834 | 42 ft | 1 kts | 198° |
| 2026-05-05 03:37 | -6.13181 | 106.65830 | 42 ft | 4 kts | 196° |
| 2026-05-05 03:37 | -6.13229 | 106.65820 | 42 ft | 10 kts | 184° |
| 2026-05-05 03:37 | -6.13314 | 106.65819 | 42 ft | 13 kts | 179° |
| 2026-05-05 03:37 | -6.13409 | 106.65854 | 42 ft | 15 kts | 155° |
| 2026-05-05 03:38 | -6.13489 | 106.65786 | 42 ft | 20 kts | 252° |
| 2026-05-05 03:38 | -6.13544 | 106.65649 | 42 ft | 19 kts | 244° |
| 2026-05-05 03:38 | -6.13589 | 106.65530 | 42 ft | 17 kts | 251° |
| 2026-05-05 03:38 | -6.13630 | 106.65431 | 42 ft | 13 kts | 251° |
| 2026-05-05 03:39 | -6.13664 | 106.65343 | 42 ft | 13 kts | 248° |
| 2026-05-05 03:39 | -6.13699 | 106.65249 | 42 ft | 16 kts | 252° |
| 2026-05-05 03:39 | -6.13747 | 106.65129 | 42 ft | 20 kts | 247° |
| 2026-05-05 03:39 | -6.13806 | 106.64984 | 42 ft | 23 kts | 248° |
| 2026-05-05 03:40 | -6.13862 | 106.64833 | 42 ft | 22 kts | 251° |
| 2026-05-05 03:40 | -6.13919 | 106.64690 | 42 ft | 22 kts | 246° |
| 2026-05-05 03:40 | -6.13977 | 106.64548 | 42 ft | 21 kts | 248° |
| 2026-05-05 03:40 | -6.14031 | 106.64414 | 42 ft | 20 kts | 248° |
| 2026-05-05 03:41 | -6.14068 | 106.64321 | 42 ft | 1 kts | 241° |
| 2026-05-05 03:41 | -6.14073 | 106.64316 | 42 ft | 1 kts | 224° |
| 2026-05-05 03:41 | -6.14086 | 106.64305 | 42 ft | 3 kts | 216° |
| 2026-05-05 03:41 | -6.14106 | 106.64298 | 42 ft | 0 kts | 195° |
| 2026-05-05 03:43 | -6.14108 | 106.64297 | 42 ft | 0 kts | 198° |
| 2026-05-05 03:43 | -6.14120 | 106.64295 | 42 ft | 3 kts | 182° |
| 2026-05-05 03:44 | -6.14163 | 106.64307 | 42 ft | 9 kts | 144° |
| 2026-05-05 03:44 | -6.14213 | 106.64360 | 42 ft | 10 kts | 142° |
| 2026-05-05 03:44 | -6.14231 | 106.64422 | 42 ft | 8 kts | 76° |
| 2026-05-05 03:44 | -6.14198 | 106.64509 | 42 ft | 28 kts | 69° |
| 2026-05-05 03:45 | -6.14053 | 106.64883 | 42 ft | 85 kts | 68° |
| 2026-05-05 03:45 | -6.13758 | 106.65614 | 42 ft | 138 kts | 68° |
| 2026-05-05 03:45 | -6.13347 | 106.66634 | 251 ft | 165 kts | 68° |
| 2026-05-05 03:45 | -6.12948 | 106.67705 | 791 ft | 169 kts | 72° |
| 2026-05-05 03:46 | -6.12522 | 106.68857 | 1309 ft | 181 kts | 70° |
| 2026-05-05 03:46 | -6.12090 | 106.69998 | 1883 ft | 175 kts | 70° |
| 2026-05-05 03:46 | -6.11626 | 106.71144 | 2168 ft | 184 kts | 69° |
| 2026-05-05 03:46 | -6.11123 | 106.72440 | 2147 ft | 214 kts | 70° |
| 2026-05-05 03:47 | -6.10622 | 106.73988 | 2198 ft | 246 kts | 79° |
| 2026-05-05 03:47 | -6.10453 | 106.75732 | 2590 ft | 262 kts | 90° |
| 2026-05-05 03:47 | -6.10479 | 106.77523 | 3356 ft | 263 kts | 92° |
| 2026-05-05 03:47 | -6.10487 | 106.79338 | 4117 ft | 264 kts | 90° |
| 2026-05-05 03:48 | -6.10451 | 106.81208 | 4826 ft | 268 kts | 89° |
| 2026-05-05 03:48 | -6.10412 | 106.83063 | 5531 ft | 270 kts | 89° |
| 2026-05-05 03:48 | -6.10370 | 106.84963 | 6236 ft | 273 kts | 89° |
| 2026-05-05 03:48 | -6.10324 | 106.86871 | 6905 ft | 270 kts | 89° |
| 2026-05-05 03:49 | -6.10279 | 106.88724 | 7082 ft | 276 kts | 89° |
| 2026-05-05 03:49 | -6.10230 | 106.90709 | 7085 ft | 280 kts | 89° |
| 2026-05-05 03:49 | -6.10180 | 106.92635 | 7076 ft | 276 kts | 89° |
| 2026-05-05 03:49 | -6.10131 | 106.94579 | 7081 ft | 276 kts | 89° |
| 2026-05-05 03:50 | -6.10083 | 106.96502 | 7081 ft | 277 kts | 89° |
| 2026-05-05 03:50 | -6.10034 | 106.98443 | 7080 ft | 277 kts | 89° |
| 2026-05-05 03:50 | -6.09985 | 107.00375 | 7081 ft | 277 kts | 89° |
| 2026-05-05 03:50 | -6.09936 | 107.02303 | 7081 ft | 277 kts | 89° |
| 2026-05-05 03:51 | -6.09898 | 107.04235 | 7081 ft | 277 kts | 90° |
| 2026-05-05 03:51 | -6.09897 | 107.06171 | 7081 ft | 277 kts | 91° |
| 2026-05-05 03:51 | -6.09897 | 107.08086 | 7080 ft | 277 kts | 90° |
| 2026-05-05 03:51 | -6.09894 | 107.10042 | 7081 ft | 277 kts | 90° |
| 2026-05-05 03:52 | -6.09892 | 107.12006 | 7437 ft | 285 kts | 90° |
| 2026-05-05 03:52 | -6.09892 | 107.13935 | 8305 ft | 280 kts | 91° |
| 2026-05-05 03:52 | -6.09886 | 107.15928 | 8949 ft | 284 kts | 88° |
| 2026-05-05 03:52 | -6.09492 | 107.17838 | 9566 ft | 287 kts | 65° |
| 2026-05-05 03:53 | -6.08322 | 107.19440 | 10170 ft | 290 kts | 44° |
| 2026-05-05 03:53 | -6.06731 | 107.20852 | 10260 ft | 315 kts | 41° |
| 2026-05-05 03:53 | -6.05062 | 107.22372 | 10296 ft | 339 kts | 43° |
| 2026-05-05 03:53 | -6.03263 | 107.24040 | 10329 ft | 363 kts | 43° |
| 2026-05-05 03:54 | -6.01367 | 107.25764 | 10765 ft | 373 kts | 43° |
| 2026-05-05 03:54 | -5.99462 | 107.27508 | 11569 ft | 372 kts | 43° |
| 2026-05-05 03:54 | -5.97541 | 107.29274 | 12195 ft | 376 kts | 43° |
| 2026-05-05 03:54 | -5.95614 | 107.31041 | 12814 ft | 380 kts | 43° |
| 2026-05-05 03:55 | -5.93669 | 107.32825 | 13438 ft | 383 kts | 43° |
| 2026-05-05 03:55 | -5.91685 | 107.34646 | 14047 ft | 387 kts | 43° |
| 2026-05-05 03:55 | -5.89698 | 107.36468 | 14639 ft | 390 kts | 43° |
| 2026-05-05 03:55 | -5.87707 | 107.38287 | 15213 ft | 393 kts | 43° |
| 2026-05-05 03:56 | -5.85684 | 107.40135 | 15779 ft | 397 kts | 43° |
| 2026-05-05 03:56 | -5.83634 | 107.42014 | 16337 ft | 400 kts | 43° |
| 2026-05-05 03:56 | -5.81574 | 107.43902 | 16880 ft | 403 kts | 43° |
| 2026-05-05 03:56 | -5.79501 | 107.45800 | 17409 ft | 406 kts | 43° |
| 2026-05-05 03:57 | -5.77421 | 107.47706 | 17925 ft | 409 kts | 43° |
| 2026-05-05 03:57 | -5.75301 | 107.49649 | 18434 ft | 412 kts | 43° |
| 2026-05-05 03:57 | -5.73185 | 107.51587 | 18926 ft | 415 kts | 43° |
| 2026-05-05 03:57 | -5.71056 | 107.53538 | 19406 ft | 418 kts | 43° |
| 2026-05-05 03:58 | -5.68898 | 107.55514 | 19877 ft | 421 kts | 43° |
| 2026-05-05 03:58 | -5.66757 | 107.57474 | 20330 ft | 424 kts | 43° |
| 2026-05-05 03:58 | -5.64559 | 107.59488 | 20781 ft | 427 kts | 43° |
| 2026-05-05 03:58 | -5.62361 | 107.61500 | 21218 ft | 430 kts | 43° |
| 2026-05-05 03:59 | -5.60147 | 107.63527 | 21643 ft | 432 kts | 43° |
| 2026-05-05 03:59 | -5.57933 | 107.65553 | 22056 ft | 435 kts | 43° |
| 2026-05-05 03:59 | -5.55713 | 107.67593 | 22457 ft | 438 kts | 43° |
| 2026-05-05 03:59 | -5.53452 | 107.69669 | 22853 ft | 440 kts | 43° |
| 2026-05-05 04:00 | -5.51173 | 107.71754 | 23239 ft | 443 kts | 43° |
| 2026-05-05 04:00 | -5.48914 | 107.73820 | 23609 ft | 445 kts | 43° |
| 2026-05-05 04:00 | -5.46622 | 107.75919 | 23973 ft | 448 kts | 43° |
| 2026-05-05 04:00 | -5.44543 | 107.78241 | 24304 ft | 450 kts | 57° |
| 2026-05-05 04:01 | -5.43296 | 107.81132 | 24593 ft | 453 kts | 78° |
| 2026-05-05 04:01 | -5.42851 | 107.84244 | 24925 ft | 455 kts | 84° |
| 2026-05-05 04:01 | -5.42482 | 107.87363 | 25270 ft | 456 kts | 83° |
| 2026-05-05 04:01 | -5.42094 | 107.90557 | 25589 ft | 459 kts | 84° |
| 2026-05-05 04:02 | -5.41756 | 107.93700 | 25891 ft | 461 kts | 84° |
| 2026-05-05 04:02 | -5.41413 | 107.96900 | 26196 ft | 463 kts | 84° |
| 2026-05-05 04:02 | -5.41064 | 108.00121 | 26506 ft | 464 kts | 84° |
| 2026-05-05 04:02 | -5.40717 | 108.03352 | 26910 ft | 463 kts | 84° |
| 2026-05-05 04:03 | -5.40379 | 108.06509 | 27322 ft | 462 kts | 84° |
| 2026-05-05 04:03 | -5.40034 | 108.09733 | 27701 ft | 461 kts | 84° |
| 2026-05-05 04:03 | -5.39694 | 108.12899 | 28057 ft | 461 kts | 84° |
| 2026-05-05 04:03 | -5.39350 | 108.16099 | 28414 ft | 460 kts | 84° |
| 2026-05-05 04:04 | -5.39007 | 108.19297 | 28762 ft | 459 kts | 84° |
| 2026-05-05 04:04 | -5.38675 | 108.22385 | 29086 ft | 459 kts | 84° |
| 2026-05-05 04:04 | -5.38338 | 108.25512 | 29404 ft | 458 kts | 84° |
| 2026-05-05 04:04 | -5.37994 | 108.28710 | 29720 ft | 457 kts | 84° |
| 2026-05-05 04:05 | -5.37655 | 108.31864 | 30022 ft | 457 kts | 84° |
| 2026-05-05 04:05 | -5.37313 | 108.35036 | 30317 ft | 456 kts | 84° |
| 2026-05-05 04:05 | -5.36973 | 108.38187 | 30600 ft | 456 kts | 84° |
| 2026-05-05 04:05 | -5.36637 | 108.41306 | 30872 ft | 455 kts | 84° |
| 2026-05-05 04:06 | -5.36292 | 108.44498 | 31142 ft | 455 kts | 84° |
| 2026-05-05 04:06 | -5.35954 | 108.47636 | 31398 ft | 454 kts | 84° |
| 2026-05-05 04:06 | -5.35615 | 108.50774 | 31646 ft | 454 kts | 84° |
| 2026-05-05 04:06 | -5.35274 | 108.53921 | 31887 ft | 453 kts | 84° |
| 2026-05-05 04:07 | -5.34937 | 108.57044 | 32118 ft | 453 kts | 84° |
| 2026-05-05 04:07 | -5.34598 | 108.60176 | 32342 ft | 452 kts | 84° |
| 2026-05-05 04:07 | -5.34258 | 108.63316 | 32558 ft | 452 kts | 84° |
| 2026-05-05 04:07 | -5.33921 | 108.66428 | 32766 ft | 451 kts | 84° |
| 2026-05-05 04:08 | -5.33585 | 108.69541 | 32966 ft | 451 kts | 84° |
| 2026-05-05 04:08 | -5.33248 | 108.72649 | 33159 ft | 451 kts | 84° |
| 2026-05-05 04:08 | -5.32906 | 108.75797 | 33349 ft | 450 kts | 84° |
| 2026-05-05 04:08 | -5.32570 | 108.78893 | 33528 ft | 450 kts | 84° |
| 2026-05-05 04:09 | -5.32230 | 108.82027 | 33704 ft | 449 kts | 84° |
| 2026-05-05 04:09 | -5.31891 | 108.85134 | 33872 ft | 449 kts | 84° |
| 2026-05-05 04:09 | -5.31557 | 108.88212 | 34032 ft | 449 kts | 84° |
| 2026-05-05 04:09 | -5.31219 | 108.91313 | 34188 ft | 449 kts | 84° |
| 2026-05-05 04:10 | -5.30876 | 108.94459 | 34341 ft | 448 kts | 84° |
| 2026-05-05 04:10 | -5.30380 | 108.97505 | 34472 ft | 448 kts | 75° |
| 2026-05-05 04:10 | -5.29178 | 109.00382 | 34585 ft | 447 kts | 58° |
| 2026-05-05 04:10 | -5.27222 | 109.02789 | 34674 ft | 447 kts | 42° |
| 2026-05-05 04:11 | -5.24678 | 109.04520 | 34747 ft | 447 kts | 25° |
| 2026-05-05 04:11 | -5.21717 | 109.05448 | 34822 ft | 447 kts | 8° |
| 2026-05-05 04:11 | -5.18646 | 109.05473 | 34895 ft | 447 kts | 351° |
| 2026-05-05 04:11 | -5.15655 | 109.04583 | 34966 ft | 446 kts | 334° |
| 2026-05-05 04:12 | -5.13128 | 109.02901 | 35011 ft | 439 kts | 317° |
| 2026-05-05 04:12 | -5.11084 | 109.00614 | 35013 ft | 441 kts | 309° |
| 2026-05-05 04:12 | -5.06920 | 108.96118 | 35010 ft | 445 kts | 328° |
| 2026-05-05 04:13 | -5.04143 | 108.94770 | 35022 ft | 447 kts | 339° |
| 2026-05-05 04:13 | -5.01245 | 108.93613 | 34997 ft | 448 kts | 338° |
| 2026-05-05 04:13 | -4.95541 | 108.91262 | 35005 ft | 446 kts | 339° |
| 2026-05-05 04:14 | -4.89797 | 108.88966 | 34998 ft | 446 kts | 339° |
| 2026-05-05 04:14 | -4.84046 | 108.86672 | 35002 ft | 447 kts | 339° |
| 2026-05-05 04:15 | -4.78244 | 108.84424 | 34999 ft | 446 kts | 346° |
| 2026-05-05 04:15 | -4.75199 | 108.84145 | 35027 ft | 444 kts | 9° |
| 2026-05-05 04:15 | -4.72310 | 108.85181 | 35050 ft | 444 kts | 34° |
| 2026-05-05 04:16 | -4.67824 | 108.89374 | 35021 ft | 446 kts | 59° |
| 2026-05-05 04:16 | -4.64995 | 108.94902 | 35009 ft | 447 kts | 64° |
| 2026-05-05 04:17 | -4.62277 | 109.00515 | 34997 ft | 446 kts | 65° |
| 2026-05-05 04:17 | -4.59615 | 109.06105 | 35001 ft | 447 kts | 65° |
| 2026-05-05 04:18 | -4.56945 | 109.11716 | 35001 ft | 446 kts | 65° |
| 2026-05-05 04:18 | -4.54272 | 109.17330 | 35000 ft | 446 kts | 65° |
| 2026-05-05 04:19 | -4.51602 | 109.22939 | 35001 ft | 446 kts | 65° |
| 2026-05-05 04:19 | -4.48938 | 109.28532 | 35000 ft | 446 kts | 65° |
| 2026-05-05 04:20 | -4.46268 | 109.34138 | 35001 ft | 446 kts | 65° |
| 2026-05-05 04:20 | -4.43598 | 109.39741 | 35000 ft | 446 kts | 65° |
| 2026-05-05 04:21 | -4.40983 | 109.45229 | 35001 ft | 446 kts | 65° |
| 2026-05-05 04:21 | -4.38295 | 109.50867 | 35001 ft | 446 kts | 65° |
| 2026-05-05 04:22 | -4.35629 | 109.56459 | 35001 ft | 446 kts | 65° |
| 2026-05-05 04:22 | -4.32956 | 109.62064 | 35001 ft | 446 kts | 65° |
| 2026-05-05 04:23 | -4.30287 | 109.67665 | 35001 ft | 446 kts | 65° |
| 2026-05-05 04:23 | -4.27611 | 109.73283 | 35001 ft | 446 kts | 65° |
| 2026-05-05 04:24 | -4.24953 | 109.78853 | 35001 ft | 446 kts | 65° |
| 2026-05-05 04:25 | -4.20931 | 109.87279 | 35001 ft | 446 kts | 65° |
| 2026-05-05 04:25 | -4.18265 | 109.92863 | 35000 ft | 446 kts | 65° |
| 2026-05-05 04:26 | -4.15586 | 109.98472 | 35001 ft | 446 kts | 65° |
| 2026-05-05 04:26 | -4.12892 | 110.04112 | 35000 ft | 446 kts | 65° |
| 2026-05-05 04:27 | -4.10220 | 110.09703 | 35001 ft | 446 kts | 65° |
| 2026-05-05 04:27 | -4.07530 | 110.15334 | 35001 ft | 446 kts | 65° |
| 2026-05-05 04:28 | -4.04858 | 110.20924 | 35001 ft | 446 kts | 65° |
| 2026-05-05 04:28 | -4.02189 | 110.26506 | 35001 ft | 446 kts | 65° |
| 2026-05-05 04:29 | -3.99501 | 110.32127 | 35000 ft | 446 kts | 65° |
| 2026-05-05 04:29 | -3.96823 | 110.37727 | 35001 ft | 446 kts | 65° |
| 2026-05-05 04:30 | -3.94146 | 110.43321 | 35001 ft | 446 kts | 65° |
| 2026-05-05 04:30 | -3.91476 | 110.48900 | 35000 ft | 446 kts | 65° |
| 2026-05-05 04:31 | -3.88779 | 110.54523 | 35001 ft | 446 kts | 65° |
| 2026-05-05 04:31 | -3.86090 | 110.60117 | 35000 ft | 446 kts | 65° |
| 2026-05-05 04:32 | -3.83409 | 110.65717 | 35001 ft | 446 kts | 65° |
| 2026-05-05 04:32 | -3.80730 | 110.71326 | 35000 ft | 446 kts | 65° |
| 2026-05-05 04:33 | -3.78064 | 110.76890 | 35001 ft | 446 kts | 65° |
| 2026-05-05 04:33 | -3.75375 | 110.82503 | 35000 ft | 446 kts | 65° |
| 2026-05-05 04:34 | -3.72699 | 110.88086 | 35001 ft | 446 kts | 65° |
| 2026-05-05 04:34 | -3.70019 | 110.93676 | 35000 ft | 446 kts | 65° |
| 2026-05-05 04:35 | -3.67331 | 110.99282 | 35001 ft | 446 kts | 65° |
| 2026-05-05 04:35 | -3.64659 | 111.04855 | 35001 ft | 446 kts | 65° |
| 2026-05-05 04:36 | -3.61982 | 111.10437 | 35000 ft | 446 kts | 65° |
| 2026-05-05 04:36 | -3.59293 | 111.16042 | 35001 ft | 446 kts | 65° |
| 2026-05-05 04:37 | -3.56599 | 111.21657 | 35000 ft | 446 kts | 65° |
| 2026-05-05 04:37 | -3.53927 | 111.27225 | 35001 ft | 446 kts | 65° |
| 2026-05-05 04:38 | -3.51231 | 111.32842 | 35000 ft | 446 kts | 65° |
| 2026-05-05 04:38 | -3.48594 | 111.38335 | 35001 ft | 446 kts | 65° |
| 2026-05-05 04:39 | -3.45901 | 111.43943 | 35000 ft | 446 kts | 65° |
| 2026-05-05 04:39 | -3.43215 | 111.49537 | 35001 ft | 446 kts | 65° |
| 2026-05-05 04:40 | -3.40541 | 111.55104 | 35000 ft | 446 kts | 65° |
| 2026-05-05 04:40 | -3.37867 | 111.60671 | 35001 ft | 446 kts | 65° |
| 2026-05-05 04:41 | -3.35179 | 111.66266 | 35000 ft | 446 kts | 65° |
| 2026-05-05 04:41 | -3.32510 | 111.71834 | 35001 ft | 446 kts | 65° |
| 2026-05-05 04:42 | -3.29824 | 111.77421 | 35000 ft | 446 kts | 65° |
| 2026-05-05 04:42 | -3.27146 | 111.82991 | 35001 ft | 446 kts | 65° |
| 2026-05-05 04:43 | -3.24453 | 111.88593 | 35001 ft | 446 kts | 65° |
| 2026-05-05 04:43 | -3.21770 | 111.94172 | 35001 ft | 446 kts | 65° |
| 2026-05-05 04:44 | -3.19082 | 111.99761 | 35001 ft | 446 kts | 65° |
| 2026-05-05 04:44 | -3.16392 | 112.05352 | 35001 ft | 446 kts | 65° |
| 2026-05-05 04:45 | -3.13709 | 112.10929 | 35001 ft | 446 kts | 65° |
| 2026-05-05 04:45 | -3.11019 | 112.16518 | 35001 ft | 446 kts | 65° |
| 2026-05-05 04:46 | -3.08331 | 112.22103 | 35001 ft | 446 kts | 65° |
| 2026-05-05 04:46 | -3.05642 | 112.27690 | 35000 ft | 446 kts | 65° |
| 2026-05-05 04:47 | -3.03135 | 112.33383 | 35001 ft | 446 kts | 69° |
| 2026-05-05 04:47 | -3.00850 | 112.39126 | 35000 ft | 446 kts | 69° |
| 2026-05-05 04:48 | -2.98574 | 112.44887 | 35001 ft | 446 kts | 69° |
| 2026-05-05 04:48 | -2.96301 | 112.50635 | 35001 ft | 446 kts | 69° |
| 2026-05-05 04:49 | -2.94018 | 112.56412 | 35000 ft | 446 kts | 69° |
| 2026-05-05 04:49 | -2.91746 | 112.62158 | 35001 ft | 446 kts | 69° |
| 2026-05-05 04:50 | -2.89458 | 112.67950 | 35000 ft | 446 kts | 69° |
| 2026-05-05 04:50 | -2.87166 | 112.73718 | 35001 ft | 446 kts | 69° |
| 2026-05-05 04:51 | -2.84882 | 112.79496 | 35000 ft | 446 kts | 69° |
| 2026-05-05 04:51 | -2.82610 | 112.85237 | 35001 ft | 446 kts | 69° |
| 2026-05-05 04:52 | -2.80323 | 112.91017 | 35000 ft | 446 kts | 69° |
| 2026-05-05 04:52 | -2.78052 | 112.96757 | 35001 ft | 446 kts | 69° |
| 2026-05-05 04:53 | -2.75765 | 113.02537 | 35000 ft | 446 kts | 69° |
| 2026-05-05 04:53 | -2.73479 | 113.08312 | 35001 ft | 446 kts | 69° |
| 2026-05-05 04:54 | -2.71200 | 113.14069 | 35001 ft | 446 kts | 69° |
| 2026-05-05 04:54 | -2.68929 | 113.19804 | 35000 ft | 446 kts | 69° |
| 2026-05-05 04:55 | -2.66634 | 113.25599 | 35001 ft | 446 kts | 69° |
| 2026-05-05 04:55 | -2.64360 | 113.31342 | 35000 ft | 446 kts | 69° |
| 2026-05-05 04:56 | -2.62081 | 113.37095 | 35001 ft | 446 kts | 69° |
| 2026-05-05 04:56 | -2.59396 | 113.42587 | 35004 ft | 446 kts | 57° |
| 2026-05-05 04:57 | -2.56006 | 113.47733 | 34999 ft | 447 kts | 58° |
| 2026-05-05 04:57 | -2.52618 | 113.52905 | 35002 ft | 446 kts | 57° |
| 2026-05-05 04:58 | -2.49192 | 113.58120 | 35001 ft | 446 kts | 57° |
| 2026-05-05 04:58 | -2.45790 | 113.63296 | 35001 ft | 446 kts | 57° |
| 2026-05-05 04:59 | -2.42392 | 113.68478 | 35000 ft | 446 kts | 57° |
| 2026-05-05 04:59 | -2.39010 | 113.73628 | 35001 ft | 446 kts | 57° |
| 2026-05-05 05:00 | -2.35600 | 113.78816 | 35000 ft | 446 kts | 57° |
| 2026-05-05 05:00 | -2.32232 | 113.83937 | 35001 ft | 446 kts | 57° |
| 2026-05-05 05:01 | -2.28819 | 113.89129 | 35000 ft | 446 kts | 57° |
| 2026-05-05 05:01 | -2.25444 | 113.94302 | 35002 ft | 446 kts | 60° |
| 2026-05-05 05:02 | -2.22816 | 113.99889 | 35001 ft | 447 kts | 66° |
| 2026-05-05 05:02 | -2.20278 | 114.05579 | 35001 ft | 446 kts | 67° |
| 2026-05-05 05:03 | -2.17796 | 114.11235 | 35000 ft | 446 kts | 67° |
| 2026-05-05 05:03 | -2.15302 | 114.16914 | 35001 ft | 446 kts | 67° |
| 2026-05-05 05:04 | -2.12810 | 114.22590 | 35000 ft | 446 kts | 67° |
| 2026-05-05 05:04 | -2.10328 | 114.28240 | 35001 ft | 446 kts | 67° |
| 2026-05-05 05:05 | -2.07838 | 114.33910 | 35001 ft | 446 kts | 67° |
| 2026-05-05 05:05 | -2.05339 | 114.39599 | 35001 ft | 446 kts | 67° |
| 2026-05-05 05:06 | -2.02832 | 114.45303 | 35001 ft | 446 kts | 67° |
| 2026-05-05 05:06 | -2.00346 | 114.50962 | 35000 ft | 446 kts | 67° |
| 2026-05-05 05:07 | -1.97852 | 114.56637 | 35001 ft | 446 kts | 67° |
| 2026-05-05 05:07 | -1.95359 | 114.62311 | 35001 ft | 446 kts | 67° |
| 2026-05-05 05:08 | -1.92874 | 114.67970 | 35001 ft | 446 kts | 67° |
| 2026-05-05 05:08 | -1.90380 | 114.73651 | 35001 ft | 446 kts | 67° |
| 2026-05-05 05:09 | -1.87880 | 114.79308 | 35000 ft | 446 kts | 67° |
| 2026-05-05 05:09 | -1.85384 | 114.84982 | 35001 ft | 446 kts | 67° |
| 2026-05-05 05:10 | -1.82882 | 114.90670 | 35000 ft | 446 kts | 67° |
| 2026-05-05 05:10 | -1.80391 | 114.96336 | 35001 ft | 446 kts | 67° |
| 2026-05-05 05:11 | -1.77900 | 115.01999 | 35001 ft | 446 kts | 67° |
| 2026-05-05 05:11 | -1.75406 | 115.07669 | 35000 ft | 446 kts | 67° |
| 2026-05-05 05:12 | -1.72911 | 115.13342 | 35001 ft | 446 kts | 67° |
| 2026-05-05 05:12 | -1.70406 | 115.19036 | 35000 ft | 446 kts | 67° |
| 2026-05-05 05:13 | -1.67956 | 115.24729 | 35001 ft | 446 kts | 68° |
| 2026-05-05 05:13 | -1.65599 | 115.30482 | 35000 ft | 446 kts | 68° |
| 2026-05-05 05:14 | -1.63248 | 115.36204 | 35001 ft | 446 kts | 68° |
| 2026-05-05 05:14 | -1.60894 | 115.41936 | 35000 ft | 446 kts | 68° |
| 2026-05-05 05:15 | -1.58546 | 115.47656 | 35001 ft | 446 kts | 68° |
| 2026-05-05 05:15 | -1.56229 | 115.53298 | 35001 ft | 446 kts | 68° |
| 2026-05-05 05:16 | -1.53865 | 115.59055 | 35001 ft | 446 kts | 68° |
| 2026-05-05 05:16 | -1.51524 | 115.64756 | 35001 ft | 446 kts | 68° |
| 2026-05-05 05:17 | -1.49185 | 115.70463 | 35000 ft | 446 kts | 68° |
| 2026-05-05 05:17 | -1.46821 | 115.76218 | 35001 ft | 446 kts | 68° |
| 2026-05-05 05:18 | -1.44463 | 115.81957 | 35000 ft | 446 kts | 68° |
| 2026-05-05 05:18 | -1.42122 | 115.87656 | 35001 ft | 446 kts | 68° |
| 2026-05-05 05:19 | -1.39771 | 115.93378 | 35000 ft | 446 kts | 68° |
| 2026-05-05 05:19 | -1.37418 | 115.99103 | 35001 ft | 446 kts | 68° |
| 2026-05-05 05:20 | -1.35066 | 116.04827 | 35000 ft | 446 kts | 68° |
| 2026-05-05 05:20 | -1.32708 | 116.10566 | 35001 ft | 446 kts | 68° |
| 2026-05-05 05:21 | -1.30349 | 116.16304 | 35000 ft | 446 kts | 68° |
| 2026-05-05 05:21 | -1.27997 | 116.22026 | 35001 ft | 446 kts | 68° |
| 2026-05-05 05:22 | -1.25656 | 116.27722 | 35000 ft | 446 kts | 68° |
| 2026-05-05 05:22 | -1.23286 | 116.33488 | 35001 ft | 446 kts | 68° |
| 2026-05-05 05:23 | -1.20938 | 116.39196 | 35000 ft | 446 kts | 68° |
| 2026-05-05 05:23 | -1.18589 | 116.44911 | 35001 ft | 446 kts | 68° |
| 2026-05-05 05:24 | -1.16231 | 116.50645 | 35001 ft | 446 kts | 68° |
| 2026-05-05 05:24 | -1.13882 | 116.56357 | 35001 ft | 446 kts | 68° |
| 2026-05-05 05:25 | -1.11519 | 116.62103 | 35001 ft | 446 kts | 68° |
| 2026-05-05 05:25 | -1.09169 | 116.67825 | 35000 ft | 446 kts | 68° |
| 2026-05-05 05:26 | -1.06817 | 116.73550 | 35001 ft | 446 kts | 68° |
| 2026-05-05 05:26 | -1.04460 | 116.79282 | 35000 ft | 446 kts | 68° |
| 2026-05-05 05:27 | -1.02107 | 116.85001 | 35001 ft | 446 kts | 68° |
| 2026-05-05 05:27 | -0.98576 | 116.93584 | 35001 ft | 446 kts | 68° |
| 2026-05-05 05:28 | -0.96212 | 116.99334 | 35000 ft | 446 kts | 68° |
| 2026-05-05 05:28 | -0.93863 | 117.05051 | 35001 ft | 446 kts | 68° |
| 2026-05-05 05:29 | -0.91503 | 117.10796 | 35001 ft | 446 kts | 68° |
| 2026-05-05 05:29 | -0.89161 | 117.16491 | 35000 ft | 446 kts | 68° |
| 2026-05-05 05:30 | -0.86795 | 117.22220 | 35000 ft | 446 kts | 68° |
| 2026-05-05 05:30 | -0.84446 | 117.27937 | 35001 ft | 446 kts | 68° |
| 2026-05-05 05:31 | -0.82093 | 117.33663 | 35000 ft | 446 kts | 68° |
| 2026-05-05 05:31 | -0.79735 | 117.39400 | 35001 ft | 446 kts | 68° |
| 2026-05-05 05:32 | -0.77378 | 117.45138 | 35000 ft | 446 kts | 68° |
| 2026-05-05 05:32 | -0.75030 | 117.50851 | 35001 ft | 446 kts | 68° |
| 2026-05-05 05:33 | -0.72710 | 117.56496 | 35000 ft | 446 kts | 68° |
| 2026-05-05 05:33 | -0.70352 | 117.62234 | 35001 ft | 446 kts | 68° |
| 2026-05-05 05:34 | -0.67992 | 117.67982 | 35000 ft | 446 kts | 68° |
| 2026-05-05 05:34 | -0.65644 | 117.73704 | 35000 ft | 446 kts | 68° |
| 2026-05-05 05:35 | -0.63282 | 117.79450 | 35001 ft | 446 kts | 68° |
| 2026-05-05 05:35 | -0.60944 | 117.85138 | 35000 ft | 446 kts | 68° |
| 2026-05-05 05:36 | -0.58576 | 117.90898 | 35001 ft | 446 kts | 68° |
| 2026-05-05 05:36 | -0.56237 | 117.96590 | 35000 ft | 446 kts | 68° |
| 2026-05-05 05:37 | -0.53882 | 118.02318 | 35001 ft | 446 kts | 68° |
| 2026-05-05 05:37 | -0.51531 | 118.08038 | 35000 ft | 446 kts | 68° |
| 2026-05-05 05:38 | -0.49187 | 118.13738 | 35001 ft | 446 kts | 68° |
| 2026-05-05 05:38 | -0.46831 | 118.19469 | 35000 ft | 446 kts | 68° |
| 2026-05-05 05:39 | -0.44478 | 118.25193 | 35001 ft | 446 kts | 68° |
| 2026-05-05 05:39 | -0.42120 | 118.30928 | 35001 ft | 446 kts | 68° |
| 2026-05-05 05:40 | -0.39758 | 118.36674 | 35001 ft | 446 kts | 68° |
| 2026-05-05 05:40 | -0.37421 | 118.42358 | 35001 ft | 446 kts | 68° |
| 2026-05-05 05:41 | -0.35206 | 118.48150 | 35000 ft | 446 kts | 71° |
| 2026-05-05 05:41 | -0.33057 | 118.53966 | 35001 ft | 446 kts | 70° |
| 2026-05-05 05:42 | -0.30921 | 118.59769 | 35000 ft | 446 kts | 70° |
| 2026-05-05 05:42 | -0.28782 | 118.65572 | 35001 ft | 446 kts | 70° |
| 2026-05-05 05:43 | -0.26643 | 118.71389 | 35000 ft | 446 kts | 70° |
| 2026-05-05 05:43 | -0.24499 | 118.77208 | 35001 ft | 446 kts | 70° |
| 2026-05-05 05:44 | -0.22366 | 118.82996 | 35000 ft | 446 kts | 70° |
| 2026-05-05 05:44 | -0.20222 | 118.88813 | 35001 ft | 446 kts | 70° |
| 2026-05-05 05:45 | -0.18091 | 118.94595 | 35000 ft | 446 kts | 70° |
| 2026-05-05 05:45 | -0.15945 | 119.00419 | 35001 ft | 446 kts | 70° |
| 2026-05-05 05:46 | -0.13808 | 119.06218 | 35000 ft | 446 kts | 70° |
| 2026-05-05 05:46 | -0.11671 | 119.12015 | 35001 ft | 446 kts | 70° |
| 2026-05-05 05:47 | -0.09523 | 119.17844 | 35001 ft | 446 kts | 70° |
| 2026-05-05 05:47 | -0.07384 | 119.23648 | 35001 ft | 446 kts | 70° |
| 2026-05-05 05:48 | -0.05248 | 119.29443 | 35001 ft | 446 kts | 70° |
| 2026-05-05 05:48 | -0.03110 | 119.35246 | 35001 ft | 446 kts | 70° |
| 2026-05-05 05:49 | -0.00971 | 119.41050 | 35001 ft | 446 kts | 70° |
| 2026-05-05 05:49 | 0.01169 | 119.46856 | 35000 ft | 446 kts | 70° |
| 2026-05-05 05:50 | 0.03143 | 119.52607 | 35003 ft | 446 kts | 75° |
| 2026-05-05 05:50 | 0.04789 | 119.58600 | 35000 ft | 447 kts | 75° |
| 2026-05-05 05:51 | 0.06433 | 119.64562 | 35001 ft | 446 kts | 75° |
| 2026-05-05 05:51 | 0.08075 | 119.70553 | 35001 ft | 446 kts | 75° |
| 2026-05-05 05:52 | 0.09705 | 119.76493 | 35000 ft | 446 kts | 75° |
| 2026-05-05 05:52 | 0.11353 | 119.82453 | 35001 ft | 446 kts | 75° |
| 2026-05-05 05:53 | 0.13001 | 119.88448 | 35000 ft | 446 kts | 75° |
| 2026-05-05 05:53 | 0.14641 | 119.94421 | 35000 ft | 446 kts | 75° |
| 2026-05-05 05:54 | 0.16275 | 120.00371 | 35001 ft | 446 kts | 75° |
| 2026-05-05 05:54 | 0.17919 | 120.06363 | 35000 ft | 446 kts | 75° |
| 2026-05-05 05:55 | 0.19545 | 120.12287 | 35001 ft | 446 kts | 75° |
| 2026-05-05 05:55 | 0.21190 | 120.18280 | 35000 ft | 446 kts | 75° |
| 2026-05-05 05:56 | 0.22830 | 120.24255 | 35001 ft | 446 kts | 75° |
| 2026-05-05 05:56 | 0.24461 | 120.30199 | 35001 ft | 446 kts | 75° |
| 2026-05-05 05:57 | 0.26107 | 120.36192 | 35001 ft | 446 kts | 75° |
| 2026-05-05 05:57 | 0.27745 | 120.42160 | 35001 ft | 446 kts | 75° |
| 2026-05-05 05:58 | 0.29385 | 120.48138 | 35000 ft | 446 kts | 75° |
| 2026-05-05 05:58 | 0.31020 | 120.54095 | 35001 ft | 446 kts | 75° |
| 2026-05-05 05:59 | 0.32661 | 120.60075 | 35000 ft | 446 kts | 75° |
| 2026-05-05 05:59 | 0.34289 | 120.66006 | 35001 ft | 446 kts | 75° |
| 2026-05-05 06:00 | 0.35929 | 120.71997 | 35000 ft | 446 kts | 75° |
| 2026-05-05 06:00 | 0.37560 | 120.77942 | 35001 ft | 446 kts | 75° |
| 2026-05-05 06:01 | 0.39203 | 120.83929 | 35001 ft | 446 kts | 75° |
| 2026-05-05 06:01 | 0.40845 | 120.89911 | 35000 ft | 446 kts | 75° |
| 2026-05-05 06:02 | 0.42476 | 120.95856 | 35001 ft | 446 kts | 75° |
| 2026-05-05 06:02 | 0.44110 | 121.01812 | 35000 ft | 446 kts | 75° |
| 2026-05-05 06:03 | 0.45751 | 121.07793 | 35001 ft | 446 kts | 75° |
| 2026-05-05 06:03 | 0.47386 | 121.13752 | 35000 ft | 446 kts | 75° |
| 2026-05-05 06:04 | 0.49030 | 121.19745 | 35001 ft | 446 kts | 75° |
| 2026-05-05 06:04 | 0.50658 | 121.25679 | 35001 ft | 446 kts | 75° |
| 2026-05-05 06:05 | 0.52298 | 121.31657 | 35001 ft | 446 kts | 75° |
| 2026-05-05 06:05 | 0.53934 | 121.37619 | 35001 ft | 446 kts | 75° |
| 2026-05-05 06:06 | 0.55577 | 121.43609 | 35001 ft | 446 kts | 75° |
| 2026-05-05 06:06 | 0.57211 | 121.49565 | 35001 ft | 446 kts | 75° |
| 2026-05-05 06:07 | 0.58847 | 121.55531 | 35001 ft | 446 kts | 75° |
| 2026-05-05 06:07 | 0.60493 | 121.61530 | 35001 ft | 446 kts | 75° |
| 2026-05-05 06:08 | 0.62104 | 121.67409 | 35000 ft | 446 kts | 75° |
| 2026-05-05 06:08 | 0.63731 | 121.73354 | 35001 ft | 446 kts | 75° |
| 2026-05-05 06:09 | 0.65364 | 121.79308 | 35000 ft | 446 kts | 75° |
| 2026-05-05 06:09 | 0.67007 | 121.85297 | 35001 ft | 446 kts | 75° |
| 2026-05-05 06:10 | 0.68645 | 121.91273 | 35000 ft | 446 kts | 75° |
| 2026-05-05 06:10 | 0.70286 | 121.97257 | 35001 ft | 446 kts | 75° |
| 2026-05-05 06:11 | 0.71926 | 122.03239 | 35001 ft | 446 kts | 75° |
| 2026-05-05 06:11 | 0.73561 | 122.09202 | 35001 ft | 446 kts | 75° |
| 2026-05-05 06:12 | 0.75190 | 122.15144 | 35001 ft | 446 kts | 75° |
| 2026-05-05 06:12 | 0.76833 | 122.21136 | 35001 ft | 446 kts | 75° |
| 2026-05-05 06:13 | 0.78466 | 122.27097 | 35001 ft | 446 kts | 75° |
| 2026-05-05 06:13 | 0.80104 | 122.33072 | 35001 ft | 446 kts | 75° |
| 2026-05-05 06:14 | 0.81734 | 122.39017 | 35001 ft | 446 kts | 75° |
| 2026-05-05 06:14 | 0.83379 | 122.45020 | 35001 ft | 446 kts | 75° |
| 2026-05-05 06:15 | 0.85009 | 122.50967 | 35000 ft | 446 kts | 75° |
| 2026-05-05 06:15 | 0.86651 | 122.56960 | 35001 ft | 446 kts | 75° |
| 2026-05-05 06:16 | 0.88278 | 122.62896 | 35001 ft | 446 kts | 75° |
| 2026-05-05 06:16 | 0.89913 | 122.68864 | 35001 ft | 446 kts | 75° |
| 2026-05-05 06:17 | 0.91559 | 122.74869 | 35001 ft | 446 kts | 75° |
| 2026-05-05 06:17 | 0.93191 | 122.80819 | 35001 ft | 446 kts | 75° |
| 2026-05-05 06:18 | 0.94841 | 122.86833 | 35001 ft | 446 kts | 75° |
| 2026-05-05 06:18 | 0.96469 | 122.92770 | 35001 ft | 446 kts | 75° |
| 2026-05-05 06:19 | 0.98107 | 122.98740 | 35001 ft | 446 kts | 75° |
| 2026-05-05 06:19 | 0.99744 | 123.04709 | 35001 ft | 446 kts | 75° |
| 2026-05-05 06:20 | 1.01387 | 123.10700 | 35001 ft | 446 kts | 75° |
| 2026-05-05 06:20 | 1.03016 | 123.16640 | 35000 ft | 446 kts | 75° |
| 2026-05-05 06:21 | 1.04652 | 123.22609 | 35001 ft | 446 kts | 75° |
| 2026-05-05 06:21 | 1.06061 | 123.28668 | 35003 ft | 446 kts | 82° |
| 2026-05-05 06:22 | 1.07048 | 123.34757 | 35000 ft | 447 kts | 81° |
| 2026-05-05 06:22 | 1.08012 | 123.40878 | 35001 ft | 446 kts | 82° |
| 2026-05-05 06:23 | 1.08974 | 123.46993 | 35001 ft | 446 kts | 82° |
| 2026-05-05 06:23 | 1.09937 | 123.53133 | 35001 ft | 446 kts | 82° |
| 2026-05-05 06:24 | 1.10908 | 123.59224 | 35001 ft | 446 kts | 82° |
| 2026-05-05 06:24 | 1.11870 | 123.65353 | 35001 ft | 446 kts | 82° |
| 2026-05-05 06:25 | 1.12827 | 123.71462 | 35000 ft | 446 kts | 82° |
| 2026-05-05 06:25 | 1.13790 | 123.77605 | 35001 ft | 446 kts | 82° |
| 2026-05-05 06:26 | 1.14733 | 123.83619 | 35000 ft | 446 kts | 82° |
| 2026-05-05 06:26 | 1.15694 | 123.89741 | 35001 ft | 446 kts | 82° |
| 2026-05-05 06:27 | 1.17130 | 123.98901 | 35000 ft | 446 kts | 82° |
| 2026-05-05 06:28 | 1.18088 | 124.05011 | 35001 ft | 446 kts | 82° |
| 2026-05-05 06:28 | 1.19047 | 124.11131 | 35001 ft | 446 kts | 82° |
| 2026-05-05 06:29 | 1.20006 | 124.17245 | 35000 ft | 446 kts | 82° |
| 2026-05-05 06:29 | 1.20965 | 124.23370 | 35001 ft | 446 kts | 82° |
| 2026-05-05 06:30 | 1.21926 | 124.29504 | 35000 ft | 446 kts | 82° |
| 2026-05-05 06:30 | 1.22883 | 124.35613 | 35001 ft | 446 kts | 82° |
| 2026-05-05 06:31 | 1.23839 | 124.41717 | 35001 ft | 446 kts | 82° |
| 2026-05-05 06:31 | 1.24797 | 124.47833 | 35001 ft | 446 kts | 82° |
| 2026-05-05 06:32 | 1.25757 | 124.53961 | 35001 ft | 446 kts | 82° |
| 2026-05-05 06:32 | 1.26711 | 124.60057 | 35000 ft | 446 kts | 82° |
| 2026-05-05 06:33 | 1.27672 | 124.66195 | 35001 ft | 446 kts | 82° |
| 2026-05-05 06:33 | 1.28629 | 124.72327 | 35000 ft | 446 kts | 82° |
| 2026-05-05 06:34 | 1.29583 | 124.78423 | 35001 ft | 446 kts | 82° |
| 2026-05-05 06:34 | 1.30538 | 124.84528 | 35001 ft | 446 kts | 82° |
| 2026-05-05 06:35 | 1.31498 | 124.90660 | 35000 ft | 446 kts | 82° |
| 2026-05-05 06:35 | 1.31916 | 124.96838 | 35014 ft | 446 kts | 99° |
| 2026-05-05 06:36 | 1.30822 | 125.02930 | 35001 ft | 447 kts | 100° |
| 2026-05-05 06:36 | 1.29709 | 125.08994 | 34999 ft | 446 kts | 101° |
| 2026-05-05 06:37 | 1.28559 | 125.15107 | 35002 ft | 446 kts | 101° |
| 2026-05-05 06:37 | 1.27417 | 125.21167 | 35000 ft | 447 kts | 101° |
| 2026-05-05 06:38 | 1.26266 | 125.27277 | 35001 ft | 446 kts | 101° |
| 2026-05-05 06:38 | 1.25122 | 125.33345 | 35000 ft | 446 kts | 101° |
| 2026-05-05 06:39 | 1.23973 | 125.39443 | 35001 ft | 446 kts | 101° |
| 2026-05-05 06:39 | 1.22826 | 125.45524 | 35000 ft | 446 kts | 101° |
| 2026-05-05 06:40 | 1.21679 | 125.51608 | 35001 ft | 446 kts | 101° |
| 2026-05-05 06:40 | 1.20533 | 125.57688 | 35001 ft | 446 kts | 101° |
| 2026-05-05 06:41 | 1.19386 | 125.63769 | 35001 ft | 446 kts | 101° |
| 2026-05-05 06:41 | 1.18238 | 125.69867 | 35001 ft | 446 kts | 101° |
| 2026-05-05 06:42 | 1.17092 | 125.75947 | 35000 ft | 446 kts | 101° |
| 2026-05-05 06:42 | 1.15945 | 125.82026 | 35001 ft | 446 kts | 101° |
| 2026-05-05 06:43 | 1.14797 | 125.88110 | 35000 ft | 446 kts | 101° |
| 2026-05-05 06:43 | 1.13648 | 125.94199 | 35001 ft | 446 kts | 101° |
| 2026-05-05 06:44 | 1.12515 | 126.00199 | 35001 ft | 446 kts | 101° |
| 2026-05-05 06:44 | 1.11368 | 126.06278 | 35000 ft | 446 kts | 101° |
| 2026-05-05 06:45 | 1.10223 | 126.12344 | 35001 ft | 446 kts | 101° |
| 2026-05-05 06:45 | 1.09069 | 126.18458 | 35000 ft | 446 kts | 101° |
| 2026-05-05 06:46 | 1.07919 | 126.24545 | 35001 ft | 446 kts | 101° |
| 2026-05-05 06:46 | 1.06770 | 126.30632 | 35001 ft | 446 kts | 101° |
| 2026-05-05 06:47 | 1.05626 | 126.36687 | 35001 ft | 446 kts | 101° |
| 2026-05-05 06:47 | 1.04474 | 126.42788 | 35001 ft | 446 kts | 101° |
| 2026-05-05 06:48 | 1.03326 | 126.48864 | 35000 ft | 446 kts | 101° |
| 2026-05-05 06:48 | 1.02182 | 126.54920 | 35001 ft | 446 kts | 101° |
| 2026-05-05 06:49 | 1.01032 | 126.60998 | 35000 ft | 446 kts | 101° |
| 2026-05-05 06:49 | 0.99874 | 126.67101 | 35001 ft | 446 kts | 101° |
| 2026-05-05 06:50 | 0.98721 | 126.73189 | 35000 ft | 446 kts | 101° |
| 2026-05-05 06:50 | 0.97571 | 126.79250 | 35001 ft | 446 kts | 101° |
| 2026-05-05 06:51 | 0.96413 | 126.85351 | 35001 ft | 446 kts | 101° |
| 2026-05-05 06:51 | 0.95139 | 126.91401 | 35001 ft | 446 kts | 104° |
| 2026-05-05 06:52 | 0.93690 | 126.97391 | 35000 ft | 446 kts | 104° |
| 2026-05-05 06:52 | 0.92239 | 127.03410 | 35001 ft | 446 kts | 104° |
| 2026-05-05 06:53 | 0.90789 | 127.09424 | 35001 ft | 446 kts | 104° |
| 2026-05-05 06:53 | 0.89329 | 127.15449 | 35001 ft | 446 kts | 104° |
| 2026-05-05 06:54 | 0.87868 | 127.21461 | 35001 ft | 446 kts | 104° |
| 2026-05-05 06:54 | 0.86411 | 127.27500 | 35001 ft | 446 kts | 104° |
| 2026-05-05 06:55 | 0.84155 | 127.33186 | 34991 ft | 446 kts | 127° |
| 2026-05-05 06:55 | 0.82363 | 127.35732 | 34798 ft | 450 kts | 122° |
| 2026-05-05 06:55 | 0.80891 | 127.38480 | 34562 ft | 449 kts | 117° |
| 2026-05-05 06:55 | 0.79483 | 127.41266 | 34317 ft | 446 kts | 118° |
| 2026-05-05 06:56 | 0.78016 | 127.43984 | 34073 ft | 445 kts | 119° |
| 2026-05-05 06:56 | 0.76572 | 127.46683 | 33835 ft | 447 kts | 118° |
| 2026-05-05 06:56 | 0.75115 | 127.49425 | 33597 ft | 449 kts | 118° |
| 2026-05-05 06:56 | 0.73648 | 127.52173 | 33357 ft | 449 kts | 118° |
| 2026-05-05 06:57 | 0.72173 | 127.54934 | 33111 ft | 448 kts | 118° |
| 2026-05-05 06:57 | 0.70724 | 127.57650 | 32865 ft | 445 kts | 118° |
| 2026-05-05 06:57 | 0.69268 | 127.60376 | 32617 ft | 442 kts | 118° |
| 2026-05-05 06:57 | 0.67820 | 127.63087 | 32370 ft | 440 kts | 118° |
| 2026-05-05 06:58 | 0.66393 | 127.65760 | 32127 ft | 439 kts | 118° |
| 2026-05-05 06:58 | 0.64969 | 127.68435 | 31882 ft | 438 kts | 118° |
| 2026-05-05 06:58 | 0.63551 | 127.71098 | 31637 ft | 436 kts | 118° |
| 2026-05-05 06:58 | 0.62125 | 127.73767 | 31390 ft | 434 kts | 118° |
| 2026-05-05 06:59 | 0.60707 | 127.76423 | 31144 ft | 432 kts | 118° |
| 2026-05-05 06:59 | 0.59300 | 127.79059 | 30898 ft | 431 kts | 118° |
| 2026-05-05 06:59 | 0.57896 | 127.81687 | 30652 ft | 429 kts | 118° |
| 2026-05-05 06:59 | 0.56498 | 127.84306 | 30406 ft | 428 kts | 118° |
| 2026-05-05 07:00 | 0.55092 | 127.86937 | 30158 ft | 426 kts | 118° |
| 2026-05-05 07:00 | 0.53717 | 127.89511 | 29914 ft | 424 kts | 118° |
| 2026-05-05 07:00 | 0.52372 | 127.92030 | 29675 ft | 423 kts | 118° |
| 2026-05-05 07:00 | 0.50992 | 127.94614 | 29428 ft | 421 kts | 118° |
| 2026-05-05 07:01 | 0.49624 | 127.97175 | 29183 ft | 419 kts | 118° |
| 2026-05-05 07:01 | 0.48261 | 127.99728 | 28937 ft | 418 kts | 118° |
| 2026-05-05 07:01 | 0.46895 | 128.02284 | 28690 ft | 416 kts | 118° |
| 2026-05-05 07:01 | 0.45539 | 128.04823 | 28444 ft | 414 kts | 118° |
| 2026-05-05 07:02 | 0.44186 | 128.07356 | 28197 ft | 413 kts | 118° |
| 2026-05-05 07:02 | 0.42855 | 128.09850 | 27953 ft | 411 kts | 118° |
| 2026-05-05 07:02 | 0.41510 | 128.12367 | 27706 ft | 410 kts | 118° |
| 2026-05-05 07:02 | 0.40166 | 128.14883 | 27458 ft | 408 kts | 118° |
| 2026-05-05 07:03 | 0.38849 | 128.17348 | 27214 ft | 407 kts | 118° |
| 2026-05-05 07:03 | 0.37514 | 128.19849 | 26966 ft | 405 kts | 118° |
| 2026-05-05 07:03 | 0.36192 | 128.22322 | 26719 ft | 403 kts | 118° |
| 2026-05-05 07:03 | 0.34879 | 128.24780 | 26472 ft | 402 kts | 118° |
| 2026-05-05 07:04 | 0.33570 | 128.27232 | 26226 ft | 400 kts | 118° |
| 2026-05-05 07:04 | 0.32268 | 128.29669 | 25980 ft | 399 kts | 118° |
| 2026-05-05 07:04 | 0.30965 | 128.32109 | 25732 ft | 397 kts | 118° |
| 2026-05-05 07:04 | 0.29668 | 128.34537 | 25485 ft | 396 kts | 118° |
| 2026-05-05 07:05 | 0.28388 | 128.36932 | 25240 ft | 394 kts | 118° |
| 2026-05-05 07:05 | 0.27088 | 128.39366 | 24990 ft | 393 kts | 118° |
| 2026-05-05 07:05 | 0.25813 | 128.41753 | 24744 ft | 391 kts | 118° |
| 2026-05-05 07:05 | 0.24541 | 128.44135 | 24498 ft | 390 kts | 118° |
| 2026-05-05 07:06 | 0.23266 | 128.46521 | 24250 ft | 388 kts | 118° |
| 2026-05-05 07:06 | 0.22009 | 128.48874 | 24004 ft | 387 kts | 118° |
| 2026-05-05 07:06 | 0.20743 | 128.51244 | 23756 ft | 385 kts | 118° |
| 2026-05-05 07:06 | 0.19494 | 128.53583 | 23510 ft | 384 kts | 118° |
| 2026-05-05 07:07 | 0.18244 | 128.55920 | 23263 ft | 382 kts | 118° |
| 2026-05-05 07:07 | 0.16992 | 128.58266 | 23015 ft | 381 kts | 118° |
| 2026-05-05 07:07 | 0.15754 | 128.60584 | 22768 ft | 379 kts | 118° |
| 2026-05-05 07:07 | 0.14509 | 128.62913 | 22519 ft | 378 kts | 118° |
| 2026-05-05 07:08 | 0.13272 | 128.65228 | 22271 ft | 376 kts | 118° |
| 2026-05-05 07:08 | 0.12051 | 128.67522 | 22023 ft | 375 kts | 118° |
| 2026-05-05 07:08 | 0.10833 | 128.69809 | 21775 ft | 374 kts | 118° |
| 2026-05-05 07:08 | 0.09604 | 128.72110 | 21524 ft | 372 kts | 118° |
| 2026-05-05 07:09 | 0.08392 | 128.74381 | 21276 ft | 371 kts | 118° |
| 2026-05-05 07:09 | 0.07197 | 128.76617 | 21031 ft | 369 kts | 118° |
| 2026-05-05 07:09 | 0.05978 | 128.78900 | 20779 ft | 368 kts | 118° |
| 2026-05-05 07:09 | 0.04783 | 128.81136 | 20531 ft | 366 kts | 118° |
| 2026-05-05 07:10 | 0.03579 | 128.83389 | 20281 ft | 365 kts | 118° |
| 2026-05-05 07:10 | 0.02400 | 128.85597 | 20035 ft | 364 kts | 118° |
| 2026-05-05 07:10 | 0.01211 | 128.87823 | 19785 ft | 362 kts | 118° |
| 2026-05-05 07:10 | 0.00023 | 128.90047 | 19535 ft | 361 kts | 118° |
| 2026-05-05 07:11 | -0.01156 | 128.92253 | 19286 ft | 360 kts | 118° |
| 2026-05-05 07:11 | -0.02318 | 128.94429 | 19040 ft | 358 kts | 118° |
| 2026-05-05 07:11 | -0.03487 | 128.96619 | 18791 ft | 357 kts | 118° |
| 2026-05-05 07:11 | -0.04661 | 128.98816 | 18540 ft | 355 kts | 118° |
| 2026-05-05 07:12 | -0.05810 | 129.00966 | 18293 ft | 354 kts | 119° |
| 2026-05-05 07:12 | -0.07188 | 129.02983 | 18051 ft | 352 kts | 137° |
| 2026-05-05 07:12 | -0.09288 | 129.04185 | 17870 ft | 350 kts | 168° |
| 2026-05-05 07:12 | -0.11679 | 129.04106 | 17724 ft | 351 kts | 200° |
| 2026-05-05 07:13 | -0.13687 | 129.02753 | 17581 ft | 351 kts | 232° |
| 2026-05-05 07:13 | -0.14665 | 129.00568 | 17437 ft | 350 kts | 264° |
| 2026-05-05 07:13 | -0.14348 | 128.98201 | 17293 ft | 349 kts | 296° |
| 2026-05-05 07:13 | -0.12824 | 128.96343 | 17149 ft | 348 kts | 325° |
| 2026-05-05 07:14 | -0.10791 | 128.95077 | 16965 ft | 349 kts | 329° |
| 2026-05-05 07:14 | -0.08747 | 128.93785 | 16712 ft | 347 kts | 327° |
| 2026-05-05 07:14 | -0.06745 | 128.92468 | 16458 ft | 344 kts | 327° |
| 2026-05-05 07:14 | -0.04750 | 128.91167 | 16207 ft | 343 kts | 327° |
| 2026-05-05 07:15 | -0.02758 | 128.89868 | 15957 ft | 342 kts | 327° |
| 2026-05-05 07:15 | -0.00824 | 128.88477 | 15699 ft | 341 kts | 318° |
| 2026-05-05 07:15 | 0.00664 | 128.86740 | 15458 ft | 339 kts | 303° |
| 2026-05-05 07:15 | 0.01793 | 128.84711 | 15224 ft | 338 kts | 297° |
| 2026-05-05 07:16 | 0.02845 | 128.82611 | 14975 ft | 337 kts | 297° |
| 2026-05-05 07:16 | 0.03891 | 128.80501 | 14722 ft | 336 kts | 296° |
| 2026-05-05 07:16 | 0.04899 | 128.78413 | 14472 ft | 334 kts | 296° |
| 2026-05-05 07:16 | 0.05895 | 128.76335 | 14224 ft | 333 kts | 296° |
| 2026-05-05 07:17 | 0.06889 | 128.74257 | 13974 ft | 332 kts | 296° |
| 2026-05-05 07:17 | 0.07878 | 128.72186 | 13725 ft | 331 kts | 296° |
| 2026-05-05 07:17 | 0.08873 | 128.70100 | 13473 ft | 329 kts | 296° |
| 2026-05-05 07:17 | 0.09858 | 128.68037 | 13223 ft | 328 kts | 296° |
| 2026-05-05 07:18 | 0.10841 | 128.65987 | 12974 ft | 327 kts | 296° |
| 2026-05-05 07:18 | 0.11819 | 128.63960 | 12726 ft | 326 kts | 296° |
| 2026-05-05 07:18 | 0.12798 | 128.61916 | 12477 ft | 325 kts | 296° |
| 2026-05-05 07:18 | 0.13759 | 128.59904 | 12230 ft | 323 kts | 296° |
| 2026-05-05 07:19 | 0.14736 | 128.57858 | 11978 ft | 322 kts | 296° |
| 2026-05-05 07:19 | 0.15687 | 128.55865 | 11732 ft | 321 kts | 296° |
| 2026-05-05 07:19 | 0.16651 | 128.53847 | 11481 ft | 320 kts | 296° |
| 2026-05-05 07:19 | 0.17602 | 128.51854 | 11233 ft | 319 kts | 296° |
| 2026-05-05 07:20 | 0.18557 | 128.49854 | 10983 ft | 318 kts | 296° |
| 2026-05-05 07:20 | 0.19495 | 128.47887 | 10736 ft | 316 kts | 296° |
| 2026-05-05 07:20 | 0.20446 | 128.45894 | 10485 ft | 315 kts | 296° |
| 2026-05-05 07:20 | 0.21379 | 128.43939 | 10238 ft | 314 kts | 296° |
| 2026-05-05 07:21 | 0.22311 | 128.41986 | 9985 ft | 309 kts | 296° |
| 2026-05-05 07:21 | 0.23233 | 128.40054 | 9727 ft | 302 kts | 296° |
| 2026-05-05 07:21 | 0.24130 | 128.38174 | 9470 ft | 297 kts | 296° |
| 2026-05-05 07:21 | 0.25004 | 128.36346 | 9217 ft | 291 kts | 296° |
| 2026-05-05 07:22 | 0.25870 | 128.34532 | 8961 ft | 286 kts | 296° |
| 2026-05-05 07:22 | 0.26720 | 128.32741 | 8706 ft | 283 kts | 296° |
| 2026-05-05 07:22 | 0.27559 | 128.30977 | 8457 ft | 282 kts | 296° |
| 2026-05-05 07:22 | 0.28399 | 128.29215 | 8208 ft | 281 kts | 296° |
| 2026-05-05 07:23 | 0.29236 | 128.27460 | 7958 ft | 280 kts | 296° |
| 2026-05-05 07:23 | 0.30076 | 128.25699 | 7706 ft | 279 kts | 296° |
| 2026-05-05 07:23 | 0.30898 | 128.23976 | 7459 ft | 278 kts | 296° |
| 2026-05-05 07:23 | 0.31735 | 128.22223 | 7206 ft | 277 kts | 296° |
| 2026-05-05 07:24 | 0.32560 | 128.20493 | 6956 ft | 276 kts | 296° |
| 2026-05-05 07:24 | 0.33382 | 128.18770 | 6706 ft | 275 kts | 296° |
| 2026-05-05 07:24 | 0.34205 | 128.17046 | 6454 ft | 274 kts | 296° |
| 2026-05-05 07:24 | 0.35025 | 128.15329 | 6203 ft | 273 kts | 296° |
| 2026-05-05 07:25 | 0.35840 | 128.13619 | 5952 ft | 272 kts | 296° |
| 2026-05-05 07:25 | 0.36645 | 128.11932 | 5703 ft | 271 kts | 296° |
| 2026-05-05 07:25 | 0.37459 | 128.10226 | 5451 ft | 270 kts | 296° |
| 2026-05-05 07:25 | 0.38264 | 128.08539 | 5200 ft | 269 kts | 296° |
| 2026-05-05 07:26 | 0.39060 | 128.06871 | 4952 ft | 268 kts | 296° |
| 2026-05-05 07:26 | 0.39862 | 128.05191 | 4700 ft | 267 kts | 296° |
| 2026-05-05 07:26 | 0.40658 | 128.03523 | 4458 ft | 266 kts | 296° |
| 2026-05-05 07:26 | 0.41449 | 128.01859 | 4397 ft | 263 kts | 296° |
| 2026-05-05 07:27 | 0.42240 | 128.00205 | 4403 ft | 266 kts | 296° |
| 2026-05-05 07:27 | 0.43043 | 127.98525 | 4399 ft | 266 kts | 296° |
| 2026-05-05 07:27 | 0.43835 | 127.96865 | 4399 ft | 266 kts | 296° |
| 2026-05-05 07:27 | 0.44633 | 127.95192 | 4399 ft | 266 kts | 296° |
| 2026-05-05 07:28 | 0.45432 | 127.93517 | 4399 ft | 266 kts | 296° |
| 2026-05-05 07:28 | 0.45836 | 127.92670 | 4399 ft | 266 kts | 296° |
| 2026-05-05 07:28 | 0.46122 | 127.92072 | 4372 ft | 268 kts | 296° |
| 2026-05-05 07:28 | 0.46890 | 127.90459 | 4338 ft | 266 kts | 296° |
| 2026-05-05 07:29 | 0.47688 | 127.88783 | 4396 ft | 269 kts | 297° |
| 2026-05-05 07:29 | 0.48503 | 127.87078 | 4393 ft | 271 kts | 297° |
| 2026-05-05 07:29 | 0.49305 | 127.85400 | 4390 ft | 267 kts | 296° |
| 2026-05-05 07:29 | 0.50107 | 127.83720 | 4393 ft | 268 kts | 296° |
| 2026-05-05 07:30 | 0.50908 | 127.82037 | 4393 ft | 268 kts | 296° |
| 2026-05-05 07:30 | 0.52516 | 127.78667 | 4392 ft | 268 kts | 296° |
| 2026-05-05 07:30 | 0.53318 | 127.76984 | 4393 ft | 270 kts | 297° |
| 2026-05-05 07:31 | 0.54099 | 127.75349 | 4391 ft | 268 kts | 296° |
| 2026-05-05 07:31 | 0.54896 | 127.73680 | 4392 ft | 268 kts | 296° |
| 2026-05-05 07:31 | 0.55705 | 127.71983 | 4392 ft | 268 kts | 296° |
| 2026-05-05 07:31 | 0.56505 | 127.70303 | 4392 ft | 270 kts | 297° |
| 2026-05-05 07:32 | 0.57309 | 127.68620 | 4393 ft | 268 kts | 296° |
| 2026-05-05 07:32 | 0.58111 | 127.66943 | 4391 ft | 268 kts | 296° |
| 2026-05-05 07:32 | 0.58913 | 127.65258 | 4392 ft | 268 kts | 296° |
| 2026-05-05 07:32 | 0.59707 | 127.63593 | 4386 ft | 262 kts | 296° |
| 2026-05-05 07:33 | 0.60470 | 127.61987 | 4378 ft | 248 kts | 296° |
| 2026-05-05 07:33 | 0.61187 | 127.60480 | 4377 ft | 235 kts | 296° |
| 2026-05-05 07:33 | 0.61878 | 127.59032 | 4379 ft | 224 kts | 296° |
| 2026-05-05 07:33 | 0.62541 | 127.57644 | 4392 ft | 224 kts | 296° |
| 2026-05-05 07:34 | 0.63224 | 127.56218 | 4257 ft | 227 kts | 296° |
| 2026-05-05 07:34 | 0.63897 | 127.54806 | 4037 ft | 225 kts | 296° |
| 2026-05-05 07:34 | 0.64638 | 127.53441 | 3844 ft | 218 kts | 310° |
| 2026-05-05 07:34 | 0.65691 | 127.52442 | 3633 ft | 208 kts | 323° |
| 2026-05-05 07:35 | 0.66799 | 127.51554 | 3391 ft | 199 kts | 321° |
| 2026-05-05 07:35 | 0.67844 | 127.50683 | 3128 ft | 192 kts | 321° |
| 2026-05-05 07:35 | 0.68851 | 127.49857 | 2893 ft | 184 kts | 322° |
| 2026-05-05 07:35 | 0.69806 | 127.49084 | 2694 ft | 170 kts | 324° |
| 2026-05-05 07:36 | 0.70694 | 127.48380 | 2486 ft | 154 kts | 323° |
| 2026-05-05 07:36 | 0.71513 | 127.47742 | 2280 ft | 146 kts | 324° |
| 2026-05-05 07:36 | 0.72300 | 127.47128 | 2147 ft | 146 kts | 325° |
| 2026-05-05 07:36 | 0.73107 | 127.46493 | 1990 ft | 147 kts | 324° |
| 2026-05-05 07:37 | 0.73898 | 127.45866 | 1811 ft | 146 kts | 322° |
| 2026-05-05 07:37 | 0.74696 | 127.45228 | 1633 ft | 146 kts | 324° |
| 2026-05-05 07:37 | 0.75482 | 127.44602 | 1464 ft | 145 kts | 322° |
| 2026-05-05 07:37 | 0.76266 | 127.43974 | 1295 ft | 145 kts | 322° |
| 2026-05-05 07:38 | 0.77053 | 127.43342 | 1125 ft | 144 kts | 322° |
| 2026-05-05 07:38 | 0.77843 | 127.42708 | 958 ft | 145 kts | 323° |
| 2026-05-05 07:38 | 0.78614 | 127.42086 | 793 ft | 143 kts | 324° |
| 2026-05-05 07:38 | 0.79410 | 127.41482 | 656 ft | 142 kts | 321° |
| 2026-05-05 07:39 | 0.80090 | 127.40772 | 569 ft | 143 kts | 307° |
| 2026-05-05 07:39 | 0.80703 | 127.39989 | 489 ft | 147 kts | 321° |
| 2026-05-05 07:39 | 0.81540 | 127.39412 | 368 ft | 145 kts | 327° |
| 2026-05-05 07:39 | 0.82337 | 127.38772 | 117 ft | 145 kts | 322° |
| 2026-05-05 07:40 | 0.83085 | 127.38189 | 63 ft | 135 kts | 319° |
| 2026-05-05 07:40 | 0.83877 | 127.37534 | 311 ft | 151 kts | 326° |
| 2026-05-05 07:40 | 0.84742 | 127.36996 | 874 ft | 147 kts | 342° |
| 2026-05-05 07:40 | 0.85786 | 127.36941 | 1231 ft | 164 kts | 17° |
| 2026-05-05 07:41 | 0.86820 | 127.37490 | 1528 ft | 176 kts | 44° |
| 2026-05-05 07:41 | 0.87417 | 127.38575 | 1900 ft | 187 kts | 83° |
| 2026-05-05 07:41 | 0.87164 | 127.39849 | 2302 ft | 195 kts | 113° |
| 2026-05-05 07:41 | 0.86542 | 127.41075 | 2751 ft | 202 kts | 121° |
| 2026-05-05 07:42 | 0.85721 | 127.42397 | 2515 ft | 251 kts | 123° |
| 2026-05-05 07:42 | 0.84703 | 127.43797 | 2367 ft | 255 kts | 128° |
| 2026-05-05 07:42 | 0.83622 | 127.45138 | 2357 ft | 242 kts | 131° |
| 2026-05-05 07:42 | 0.82536 | 127.46340 | 2413 ft | 226 kts | 133° |
| 2026-05-05 07:43 | 0.81426 | 127.47328 | 2549 ft | 201 kts | 150° |
| 2026-05-05 07:43 | 0.80128 | 127.47794 | 2573 ft | 199 kts | 179° |
| 2026-05-05 07:43 | 0.78781 | 127.47595 | 2629 ft | 194 kts | 202° |
| 2026-05-05 07:43 | 0.77665 | 127.46935 | 2621 ft | 187 kts | 231° |
| 2026-05-05 07:44 | 0.77173 | 127.45763 | 2545 ft | 189 kts | 276° |
| 2026-05-05 07:44 | 0.77771 | 127.44642 | 2321 ft | 192 kts | 315° |
| 2026-05-05 07:44 | 0.78619 | 127.43619 | 1888 ft | 189 kts | 303° |
| 2026-05-05 07:44 | 0.79114 | 127.42433 | 1398 ft | 183 kts | 285° |
| 2026-05-05 07:45 | 0.79398 | 127.41235 | 1069 ft | 169 kts | 292° |
| 2026-05-05 07:45 | 0.80063 | 127.40374 | 854 ft | 149 kts | 329° |
| 2026-05-05 07:45 | 0.80998 | 127.39946 | 600 ft | 148 kts | 333° |
| 2026-05-05 07:45 | 0.81731 | 127.39319 | 333 ft | 133 kts | 315° |
| 2026-05-05 07:46 | 0.82433 | 127.38708 | 61 ft | 134 kts | 323° |
| 2026-05-05 07:46 | 0.82926 | 127.38310 | 56 ft | 36 kts | 322° |
| 2026-05-05 07:46 | 0.83055 | 127.38210 | 56 ft | 27 kts | 319° |
| 2026-05-05 07:46 | 0.83232 | 127.38057 | 56 ft | 40 kts | 310° |
| 2026-05-05 07:47 | 0.83341 | 127.37873 | 56 ft | 19 kts | 311° |
| 2026-05-05 07:47 | 0.83366 | 127.37800 | 56 ft | 8 kts | 296° |
| 2026-05-05 07:47 | 0.83380 | 127.37762 | 56 ft | 4 kts | 249° |
| 2026-05-05 07:47 | 0.83368 | 127.37746 | 56 ft | 1 kts | 232° |
| 2026-05-05 07:48 | 0.83365 | 127.37743 | 56 ft | 0 kts | 230° |
| 2026-05-05 07:48 | 0.83365 | 127.37742 | 56 ft | 0 kts | 231° |